createdAt,value
2018-05-21T00:01:21.284Z,5.87
2018-05-21T00:04:24.031Z,6.57
2018-05-21T00:07:26.625Z,5.80
2018-05-21T00:10:29.207Z,6.80
2018-05-21T00:13:31.803Z,6.87
2018-05-21T00:16:34.418Z,7.80
2018-05-21T00:19:36.991Z,6.70
2018-05-21T00:22:40.494Z,7.13
2018-05-21T00:25:43.841Z,6.73
2018-05-21T00:28:46.423Z,6.63
2018-05-21T00:31:49.019Z,6.50
2018-05-21T00:34:51.621Z,8.33
2018-05-21T00:37:54.210Z,7.30
2018-05-21T00:40:57.561Z,7.30
2018-05-21T00:44:00.113Z,6.70
2018-05-21T00:47:03.526Z,6.80
2018-05-21T00:50:06.096Z,7.47
2018-05-21T00:53:09.451Z,8.07
2018-05-21T00:56:12.020Z,7.33
2018-05-21T00:59:14.634Z,7.10
2018-05-21T01:02:18.696Z,7.37
2018-05-21T01:05:21.374Z,7.53
2018-05-21T01:08:23.944Z,6.20
2018-05-21T01:11:26.536Z,6.80
2018-05-21T01:14:29.112Z,6.40
2018-05-21T01:17:32.018Z,7.30
2018-05-21T01:20:35.711Z,7.18
2018-05-21T01:23:38.364Z,6.60
2018-05-21T01:26:40.987Z,7.93
2018-05-21T01:29:43.577Z,6.80
2018-05-21T01:32:46.172Z,7.00
2018-05-21T01:35:48.800Z,7.17
2018-05-21T01:38:52.174Z,8.00
2018-05-21T01:41:54.750Z,8.30
2018-05-21T01:44:57.377Z,8.50
2018-05-21T01:48:00.086Z,7.00
2018-05-21T01:51:02.678Z,7.63
2018-05-21T01:54:05.287Z,7.73
2018-05-21T01:57:07.891Z,7.80
2018-05-21T02:00:10.470Z,6.93
2018-05-21T02:03:13.060Z,8.40
2018-05-21T02:06:15.665Z,7.40
2018-05-21T02:09:18.267Z,8.37
2018-05-21T02:12:20.837Z,7.50
2018-05-21T02:15:23.601Z,7.97
2018-05-21T02:18:26.738Z,8.23
2018-05-21T02:21:29.353Z,7.47
2018-05-21T02:24:31.946Z,8.20
2018-05-21T02:27:35.303Z,7.63
2018-05-21T02:30:37.886Z,8.43
2018-05-21T02:33:40.481Z,7.63
2018-05-21T02:36:43.051Z,7.20
2018-05-21T02:39:45.906Z,7.20
2018-05-21T02:42:48.678Z,7.87
2018-05-21T02:45:52.095Z,8.33
2018-05-21T02:48:54.683Z,8.03
2018-05-21T02:51:57.262Z,8.00
2018-05-21T02:54:59.906Z,9.40
2018-05-21T02:58:02.476Z,8.77
2018-05-21T03:01:05.864Z,8.10
2018-05-21T03:04:08.579Z,8.50
2018-05-21T03:07:11.188Z,8.40
2018-05-21T03:10:13.761Z,8.67
2018-05-21T03:13:16.373Z,8.07
2018-05-21T03:16:18.975Z,7.10
2018-05-21T03:19:21.647Z,7.87
2018-05-21T03:22:24.259Z,8.23
2018-05-21T03:25:26.862Z,8.23
2018-05-21T03:28:30.230Z,8.47
2018-05-21T03:31:32.810Z,9.10
2018-05-21T03:34:35.771Z,8.87
2018-05-21T03:37:38.386Z,8.90
2018-05-21T03:40:40.979Z,8.53
2018-05-21T03:43:43.605Z,9.57
2018-05-21T03:46:46.198Z,9.50
2018-05-21T03:49:48.959Z,9.50
2018-05-21T03:52:51.568Z,9.80
2018-05-21T03:55:54.145Z,9.13
2018-05-21T03:59:08.507Z,9.63
2018-05-21T04:02:22.932Z,7.47
2018-05-21T04:05:25.625Z,8.77
2018-05-21T04:08:28.214Z,9.20
2018-05-21T04:11:30.825Z,9.10
2018-05-21T04:14:33.396Z,7.90
2018-05-21T04:17:35.991Z,8.10
2018-05-21T04:20:38.605Z,8.00
2018-05-21T04:23:41.186Z,8.50
2018-05-21T04:26:44.562Z,8.60
2018-05-21T04:29:47.171Z,8.20
2018-05-21T04:32:49.770Z,8.77
2018-05-21T04:35:52.337Z,7.90
2018-05-21T04:38:55.969Z,7.90
2018-05-21T04:41:58.549Z,7.20
2018-05-21T04:45:01.155Z,7.43
2018-05-21T04:48:03.803Z,7.90
2018-05-21T04:51:06.505Z,7.93
2018-05-21T04:54:09.956Z,8.03
2018-05-21T04:57:12.554Z,6.87
2018-05-21T05:00:15.124Z,8.30
2018-05-21T05:03:18.514Z,7.30
2018-05-21T05:06:21.871Z,7.30
2018-05-21T05:09:24.534Z,7.40
2018-05-21T05:12:27.857Z,7.30
2018-05-21T05:15:30.468Z,6.93
2018-05-21T05:18:33.076Z,6.97
2018-05-21T05:21:36.464Z,6.57
2018-05-21T05:24:39.108Z,7.20
2018-05-21T05:27:42.222Z,6.07
2018-05-21T05:30:44.832Z,6.60
2018-05-21T05:33:47.414Z,6.50
2018-05-21T05:36:50.036Z,5.53
2018-05-21T05:39:52.604Z,6.70
2018-05-21T05:42:55.215Z,5.20
2018-05-21T05:45:57.828Z,6.20
2018-05-21T05:49:06.339Z,6.70
2018-05-21T05:52:08.911Z,6.27
2018-05-21T05:55:11.578Z,5.40
2018-05-21T05:58:14.173Z,6.57
2018-05-21T06:01:16.744Z,5.90
2018-05-21T06:04:19.342Z,5.80
2018-05-21T06:07:21.923Z,5.50
2018-05-21T06:10:24.676Z,6.30
2018-05-21T06:13:27.244Z,5.90
2018-05-21T06:16:30.601Z,5.77
2018-05-21T06:19:33.312Z,5.97
2018-05-21T06:22:35.930Z,5.90
2018-05-21T06:25:38.506Z,5.90
2018-05-21T06:28:41.104Z,6.37
2018-05-21T06:31:43.738Z,5.60
2018-05-21T06:34:46.318Z,5.73
2018-05-21T06:37:48.928Z,5.83
2018-05-21T06:40:51.543Z,5.03
2018-05-21T06:43:54.139Z,5.10
2018-05-21T06:46:56.737Z,5.50
2018-05-21T06:49:59.776Z,5.20
2018-05-21T06:53:02.432Z,4.90
2018-05-21T06:56:05.084Z,4.87
2018-05-21T06:59:07.795Z,5.20
2018-05-21T07:02:10.755Z,4.90
2018-05-21T07:05:13.332Z,4.27
2018-05-21T07:08:16.171Z,4.73
2018-05-21T07:11:18.750Z,4.40
2018-05-21T07:14:21.352Z,4.50
2018-05-21T07:17:24.626Z,3.97
2018-05-21T07:20:27.254Z,4.40
2018-05-21T07:23:29.923Z,4.87
2018-05-21T07:26:32.518Z,4.13
2018-05-21T07:29:35.124Z,3.60
2018-05-21T07:32:37.775Z,4.03
2018-05-21T07:35:40.387Z,4.13
2018-05-21T07:38:42.994Z,4.43
2018-05-21T07:41:45.634Z,4.10
2018-05-21T07:44:48.326Z,4.63
2018-05-21T07:47:51.001Z,3.97
2018-05-21T07:50:53.575Z,4.37
2018-05-21T07:53:56.171Z,4.20
2018-05-21T07:56:58.758Z,4.97
2018-05-21T08:00:01.627Z,4.23
2018-05-21T08:03:04.231Z,4.87
2018-05-21T08:06:06.867Z,4.87
2018-05-21T08:09:09.538Z,4.40
2018-05-21T08:12:12.904Z,3.93
2018-05-21T08:15:15.573Z,4.63
2018-05-21T08:18:18.185Z,5.47
2018-05-21T08:21:20.810Z,4.60
2018-05-21T08:24:23.422Z,4.57
2018-05-21T08:27:26.060Z,5.07
2018-05-21T08:30:28.697Z,4.83
2018-05-21T08:33:31.337Z,4.80
2018-05-21T08:36:33.938Z,4.43
2018-05-21T08:39:36.597Z,5.80
2018-05-21T08:42:39.237Z,5.33
2018-05-21T08:45:42.185Z,5.50
2018-05-21T08:48:44.844Z,5.10
2018-05-21T08:51:47.434Z,5.03
2018-05-21T08:54:50.031Z,5.80
2018-05-21T08:57:52.612Z,5.07
2018-05-21T09:00:55.253Z,5.80
2018-05-21T09:03:58.764Z,4.90
2018-05-21T09:07:01.360Z,5.90
2018-05-21T09:10:04.090Z,5.30
2018-05-21T09:13:08.123Z,5.73
2018-05-21T09:16:10.694Z,5.17
2018-05-21T09:19:14.890Z,8.80
2018-05-21T09:22:17.461Z,6.03
2018-05-21T09:25:22.066Z,6.07
2018-05-21T09:28:24.899Z,5.60
2018-05-21T09:31:27.641Z,5.60
2018-05-21T09:34:30.587Z,5.87
2018-05-21T09:37:33.560Z,5.30
2018-05-21T09:40:36.146Z,4.97
2018-05-21T09:43:38.793Z,5.60
2018-05-21T09:46:41.459Z,5.57
2018-05-21T09:49:44.109Z,5.20
2018-05-21T09:52:46.845Z,4.60
2018-05-21T09:55:49.412Z,5.20
2018-05-21T09:58:52.759Z,5.50
2018-05-21T10:01:55.324Z,5.17
2018-05-21T10:04:58.318Z,5.07
2018-05-21T10:08:00.902Z,5.57
2018-05-21T10:11:03.463Z,5.03
2018-05-21T10:14:06.099Z,5.03
2018-05-21T10:17:08.696Z,5.70
2018-05-21T10:20:11.295Z,5.77
2018-05-21T10:23:14.642Z,5.27
2018-05-21T10:26:17.337Z,5.60
2018-05-21T10:29:19.951Z,5.80
2018-05-21T10:32:22.766Z,4.90
2018-05-21T10:35:25.415Z,5.53
2018-05-21T10:38:28.004Z,4.80
2018-05-21T10:41:31.378Z,5.23
2018-05-21T10:44:34.007Z,4.90
2018-05-21T10:47:36.602Z,5.43
2018-05-21T10:50:39.191Z,5.10
2018-05-21T10:53:41.860Z,6.20
2018-05-21T10:56:44.436Z,5.07
2018-05-21T10:59:47.180Z,6.00
2018-05-21T11:02:49.745Z,5.80
2018-05-21T11:05:52.357Z,4.77
2018-05-21T11:08:54.939Z,5.10
2018-05-21T11:11:58.615Z,5.50
2018-05-21T11:15:01.509Z,5.40
2018-05-21T11:18:07.451Z,5.20
2018-05-21T11:21:10.025Z,5.27
2018-05-21T11:24:12.642Z,5.60
2018-05-21T11:27:15.248Z,5.40
2018-05-21T11:30:18.591Z,5.20
2018-05-21T11:33:21.223Z,5.70
2018-05-21T11:36:24.862Z,5.10
2018-05-21T11:39:28.114Z,5.63
2018-05-21T11:42:30.764Z,5.07
2018-05-21T11:45:33.362Z,5.47
2018-05-21T11:48:35.942Z,6.23
2018-05-21T11:51:38.772Z,5.83
2018-05-21T11:54:42.144Z,5.57
2018-05-21T11:57:44.740Z,5.40
2018-05-21T12:00:48.282Z,4.87
2018-05-21T12:03:51.147Z,5.03
2018-05-21T12:06:53.768Z,5.47
2018-05-21T12:09:56.437Z,4.80
2018-05-21T12:12:59.014Z,5.50
2018-05-21T12:16:01.635Z,5.73
2018-05-21T12:19:04.237Z,4.67
2018-05-21T12:22:06.826Z,4.30
2018-05-21T12:25:09.448Z,4.87
2018-05-21T12:28:12.059Z,5.13
2018-05-21T12:31:14.875Z,5.10
2018-05-21T12:34:17.470Z,6.07
2018-05-21T12:37:20.061Z,5.60
2018-05-21T12:40:22.726Z,7.33
2018-05-21T12:43:26.804Z,5.63
2018-05-21T12:46:29.428Z,5.03
2018-05-21T12:49:32.330Z,5.03
2018-05-21T12:52:34.937Z,4.83
2018-05-21T12:55:37.518Z,4.70
2018-05-21T12:58:40.188Z,5.13
2018-05-21T13:01:42.787Z,5.00
2018-05-21T13:04:45.493Z,4.90
2018-05-21T13:07:48.347Z,5.47
2018-05-21T13:10:51.512Z,5.30
2018-05-21T13:13:54.405Z,5.80
2018-05-21T13:16:57.542Z,5.83
2018-05-21T13:20:00.493Z,5.50
2018-05-21T13:23:03.380Z,4.90
2018-05-21T13:26:06.777Z,4.60
2018-05-21T13:29:09.347Z,5.47
2018-05-21T13:32:11.953Z,4.30
2018-05-21T13:35:14.673Z,4.50
2018-05-21T13:38:17.266Z,5.10
2018-05-21T13:41:19.947Z,4.73
2018-05-21T13:44:22.601Z,5.30
2018-05-21T13:47:25.283Z,4.80
2018-05-21T13:50:27.886Z,5.20
2018-05-21T13:53:30.479Z,4.77
2018-05-21T13:56:33.072Z,4.67
2018-05-21T13:59:35.667Z,5.03
2018-05-21T14:02:38.245Z,4.87
2018-05-21T14:05:40.887Z,4.00
2018-05-21T14:08:43.515Z,4.93
2018-05-21T14:11:46.246Z,5.20
2018-05-21T14:14:48.823Z,5.20
2018-05-21T14:17:51.598Z,4.60
2018-05-21T14:20:54.192Z,4.87
2018-05-21T14:23:56.959Z,5.63
2018-05-21T14:26:59.836Z,5.00
2018-05-21T14:30:02.560Z,5.13
2018-05-21T14:33:05.206Z,5.43
2018-05-21T14:36:07.777Z,5.57
2018-05-21T14:39:10.360Z,6.23
2018-05-21T14:42:12.953Z,4.30
2018-05-21T14:45:17.065Z,4.53
2018-05-21T14:48:20.457Z,4.87
2018-05-21T14:51:23.064Z,5.53
2018-05-21T14:54:26.438Z,4.70
2018-05-21T14:57:29.250Z,5.50
2018-05-21T15:00:32.674Z,4.50
2018-05-21T15:03:35.267Z,4.83
2018-05-21T15:06:38.786Z,5.00
2018-05-21T15:09:42.095Z,5.40
2018-05-21T15:12:44.771Z,5.60
2018-05-21T15:15:47.408Z,5.80
2018-05-21T15:18:50.775Z,6.23
2018-05-21T15:21:53.340Z,6.00
2018-05-21T15:24:55.987Z,5.23
2018-05-21T15:27:58.745Z,6.50
2018-05-21T15:31:02.144Z,6.27
2018-05-21T15:34:04.945Z,5.80
2018-05-21T15:37:08.300Z,6.43
2018-05-21T15:40:10.927Z,6.63
2018-05-21T15:43:14.513Z,7.30
2018-05-21T15:46:17.057Z,7.30
2018-05-21T15:49:19.710Z,7.20
2018-05-21T15:52:22.360Z,6.70
2018-05-21T15:55:24.939Z,6.30
2018-05-21T15:58:27.608Z,6.10
2018-05-21T16:01:30.323Z,6.57
2018-05-21T16:04:33.736Z,6.33
2018-05-21T16:07:36.329Z,6.90
2018-05-21T16:10:38.974Z,6.70
2018-05-21T16:13:41.560Z,6.40
2018-05-21T16:16:44.940Z,6.43
2018-05-21T16:19:47.538Z,6.40
2018-05-21T16:22:50.131Z,6.70
2018-05-21T16:25:53.460Z,6.23
2018-05-21T16:28:56.348Z,6.30
2018-05-21T16:31:58.966Z,6.33
2018-05-21T16:35:01.558Z,6.07
2018-05-21T16:38:04.987Z,5.87
2018-05-21T16:41:08.337Z,5.67
2018-05-21T16:44:10.950Z,4.90
2018-05-21T16:47:13.611Z,5.37
2018-05-21T16:50:16.239Z,5.50
2018-05-21T16:53:18.812Z,5.10
2018-05-21T16:56:22.214Z,5.70
2018-05-21T16:59:24.847Z,5.40
2018-05-21T17:02:28.231Z,5.63
2018-05-21T17:05:31.340Z,6.00
2018-05-21T17:08:33.947Z,6.40
2018-05-21T17:11:37.228Z,6.33
2018-05-21T17:14:40.121Z,4.83
2018-05-21T17:17:43.636Z,5.87
2018-05-21T17:20:46.286Z,6.63
2018-05-21T17:23:48.915Z,5.23
2018-05-21T17:26:51.740Z,5.53
2018-05-21T17:29:54.330Z,5.77
2018-05-21T17:32:56.922Z,4.83
2018-05-21T17:35:59.594Z,6.47
2018-05-21T17:39:02.262Z,6.67
2018-05-21T17:42:04.841Z,6.27
2018-05-21T17:45:08.257Z,6.53
2018-05-21T17:48:10.860Z,6.63
2018-05-21T17:51:13.496Z,6.90
2018-05-21T17:54:16.375Z,6.83
2018-05-21T17:57:19.203Z,6.87
2018-05-21T18:00:22.019Z,6.70
2018-05-21T18:03:24.644Z,6.80
2018-05-21T18:06:27.445Z,6.40
2018-05-21T18:09:30.099Z,6.47
2018-05-21T18:12:32.701Z,7.00
2018-05-21T18:15:35.532Z,6.30
2018-05-21T18:18:38.170Z,6.50
2018-05-21T18:21:42.615Z,7.40
2018-05-21T18:24:45.298Z,7.87
2018-05-21T18:27:48.500Z,7.57
2018-05-21T18:30:51.170Z,7.33
2018-05-21T18:33:53.963Z,7.60
2018-05-21T18:36:56.561Z,6.67
2018-05-21T18:39:59.175Z,6.60
2018-05-21T18:43:02.528Z,7.67
2018-05-21T18:46:05.211Z,7.37
2018-05-21T18:49:07.910Z,7.23
2018-05-21T18:52:10.572Z,7.63
2018-05-21T18:55:14.882Z,7.70
2018-05-21T18:58:19.355Z,7.87
2018-05-21T19:01:21.958Z,7.70
2018-05-21T19:04:26.146Z,8.17
2018-05-21T19:07:28.850Z,7.87
2018-05-21T19:10:31.495Z,7.30
2018-05-21T19:13:34.096Z,7.40
2018-05-21T19:16:36.815Z,7.30
2018-05-21T19:19:39.547Z,7.57
2018-05-21T19:22:42.231Z,8.30
2018-05-21T19:25:44.981Z,8.50
2018-05-21T19:28:49.669Z,9.20
2018-05-21T19:31:52.258Z,7.53
2018-05-21T19:34:54.971Z,7.47
2018-05-21T19:37:57.563Z,7.20
2018-05-21T19:41:00.485Z,7.53
2018-05-21T19:44:03.087Z,7.47
2018-05-21T19:47:05.693Z,7.33
2018-05-21T19:50:08.326Z,8.53
2018-05-21T19:53:11.630Z,8.17
2018-05-21T19:56:14.238Z,8.43
2018-05-21T19:59:16.845Z,8.00
2018-05-21T20:02:19.450Z,7.80
2018-05-21T20:05:22.878Z,8.70
2018-05-21T20:08:25.462Z,8.90
2018-05-21T20:11:28.927Z,8.37
2018-05-21T20:14:31.618Z,8.33
2018-05-21T20:17:34.198Z,8.53
2018-05-21T20:20:41.650Z,7.13
2018-05-21T20:23:45.832Z,8.18
2018-05-21T20:26:48.440Z,7.87
2018-05-21T20:29:51.025Z,8.00
2018-05-21T20:32:53.615Z,9.50
2018-05-21T20:35:56.265Z,8.80
2018-05-21T20:38:58.912Z,8.40
2018-05-21T20:42:01.847Z,7.27
2018-05-21T20:45:04.631Z,7.43
2018-05-21T20:48:07.266Z,7.83
2018-05-21T20:51:09.960Z,7.17
2018-05-21T20:54:14.110Z,7.30
2018-05-21T20:57:16.724Z,6.73
2018-05-21T21:00:19.324Z,6.83
2018-05-21T21:03:22.517Z,7.27
2018-05-21T21:06:25.150Z,8.83
2018-05-21T21:09:27.770Z,7.20
2018-05-21T21:12:31.132Z,7.67
2018-05-21T21:15:34.466Z,7.23
2018-05-21T21:18:37.097Z,7.90
2018-05-21T21:21:39.706Z,7.50
2018-05-21T21:24:42.299Z,8.30
2018-05-21T21:27:44.970Z,7.30
2018-05-21T21:30:47.587Z,7.27
2018-05-21T21:33:50.225Z,7.27
2018-05-21T21:36:52.828Z,7.50
2018-05-21T21:39:55.482Z,6.90
2018-05-21T21:42:58.905Z,5.80
2018-05-21T21:46:01.677Z,6.30
2018-05-21T21:49:04.323Z,8.00
2018-05-21T21:52:07.706Z,6.67
2018-05-21T21:55:10.939Z,7.57
2018-05-21T21:58:13.611Z,7.40
2018-05-21T22:01:16.988Z,6.93
2018-05-21T22:04:19.648Z,7.13
2018-05-21T22:07:22.324Z,6.10
2018-05-21T22:10:24.992Z,6.47
2018-05-21T22:13:28.403Z,6.60
2018-05-21T22:16:31.044Z,6.93
2018-05-21T22:19:33.652Z,6.17
2018-05-21T22:22:37.069Z,6.50
2018-05-21T22:25:39.755Z,7.17
2018-05-21T22:28:42.353Z,6.57
2018-05-21T22:31:45.136Z,7.00
2018-05-21T22:34:47.759Z,5.70
2018-05-21T22:37:51.401Z,7.20
2018-05-21T22:40:54.788Z,6.90
2018-05-21T22:43:57.385Z,6.60
2018-05-21T22:47:00.814Z,5.93
2018-05-21T22:50:03.701Z,6.37
2018-05-21T22:53:06.456Z,6.80
2018-05-21T22:56:10.011Z,6.40
2018-05-21T22:59:12.585Z,6.30
2018-05-21T23:02:15.210Z,5.57
2018-05-21T23:05:17.778Z,6.40
2018-05-21T23:08:20.417Z,6.27
2018-05-21T23:11:22.998Z,6.73
2018-05-21T23:14:25.604Z,6.23
2018-05-21T23:17:28.200Z,6.13
2018-05-21T23:20:30.788Z,6.47
2018-05-21T23:23:33.557Z,6.10
2018-05-21T23:26:36.164Z,6.40
2018-05-21T23:29:38.770Z,6.63
2018-05-21T23:32:41.571Z,5.43
2018-05-21T23:35:44.198Z,6.77
2018-05-21T23:38:46.830Z,5.67
2018-05-21T23:41:49.389Z,6.00
2018-05-21T23:44:52.774Z,5.80
2018-05-21T23:47:55.604Z,5.90
2018-05-21T23:50:58.238Z,5.67
2018-05-21T23:54:00.824Z,5.50
2018-05-21T23:57:03.400Z,5.20
